createdAt,value
2023-01-25T00:02:04.008Z,-1.33
2023-01-25T00:07:07.174Z,-1.40
2023-01-25T00:12:10.369Z,-1.42
2023-01-25T00:17:13.596Z,-1.33
2023-01-25T00:22:16.681Z,-1.29
2023-01-25T00:27:19.788Z,-1.35
2023-01-25T00:32:23.281Z,-1.34
2023-01-25T00:37:44.688Z,-1.28
2023-01-25T00:42:47.747Z,-1.36
2023-01-25T00:47:56.457Z,-1.40
2023-01-25T00:52:59.494Z,-1.30
2023-01-25T00:58:02.705Z,-1.30
2023-01-25T01:03:05.810Z,-1.42
2023-01-25T01:08:09.010Z,-1.41
2023-01-25T01:13:12.015Z,-1.48
2023-01-25T01:18:15.328Z,-1.59
2023-01-25T01:23:19.269Z,-1.68
2023-01-25T01:28:22.569Z,-1.80
2023-01-25T01:33:25.673Z,-1.69
2023-01-25T01:38:28.975Z,-1.67
2023-01-25T01:43:32.610Z,-1.67
2023-01-25T01:48:47.888Z,-1.80
2023-01-25T01:54:08.602Z,-1.84
2023-01-25T01:59:13.294Z,-1.87
2023-01-25T02:04:19.387Z,-1.92
2023-01-25T02:09:26.330Z,-1.87
2023-01-25T02:14:29.843Z,-1.91
2023-01-25T02:19:59.170Z,-2.05
2023-01-25T02:25:10.569Z,-2.09
2023-01-25T02:30:14.280Z,-2.08
2023-01-25T02:35:43.513Z,-2.10
2023-01-25T02:40:54.821Z,-2.00
2023-01-25T02:46:18.916Z,-1.95
2023-01-25T02:51:26.197Z,-1.95
2023-01-25T02:56:30.485Z,-2.03
2023-01-25T03:01:35.965Z,-2.10
2023-01-25T03:06:40.112Z,-2.16
2023-01-25T03:11:43.230Z,-2.17
2023-01-25T03:16:46.289Z,-2.25
2023-01-25T03:21:49.453Z,-2.22
2023-01-25T03:27:10.991Z,-2.17
2023-01-25T03:32:14.459Z,-2.19
2023-01-25T03:37:17.810Z,-2.16
2023-01-25T03:42:22.461Z,-2.12
2023-01-25T03:47:25.563Z,-2.10
2023-01-25T03:52:30.316Z,-2.12
2023-01-25T03:57:33.515Z,-2.12
2023-01-25T04:02:36.641Z,-2.16
2023-01-25T04:07:40.353Z,-2.19
2023-01-25T04:12:43.449Z,-2.27
2023-01-25T04:17:46.455Z,-2.30
2023-01-25T04:22:49.695Z,-2.33
2023-01-25T04:27:52.973Z,-2.33
2023-01-25T04:32:56.077Z,-2.35
2023-01-25T04:38:00.364Z,-2.34
2023-01-25T04:43:03.735Z,-2.36
2023-01-25T04:48:11.197Z,-2.29
2023-01-25T04:53:14.445Z,-2.25
2023-01-25T04:58:17.590Z,-2.15
2023-01-25T05:03:20.680Z,-2.20
2023-01-25T05:08:23.811Z,-2.26
2023-01-25T05:13:26.983Z,-2.28
2023-01-25T05:18:42.645Z,-2.22
2023-01-25T05:23:50.528Z,-2.13
2023-01-25T05:28:53.801Z,-2.14
2023-01-25T05:33:56.904Z,-2.19
2023-01-25T05:39:00.009Z,-2.24
2023-01-25T05:44:04.309Z,-2.34
2023-01-25T05:49:07.865Z,-2.26
2023-01-25T05:54:18.073Z,-2.16
2023-01-25T05:59:21.243Z,-2.05
2023-01-25T06:04:24.496Z,-2.06
2023-01-25T06:09:27.756Z,-2.12
2023-01-25T06:14:30.816Z,-2.18
2023-01-25T06:19:34.179Z,-2.17
2023-01-25T06:24:37.319Z,-2.11
2023-01-25T06:29:40.606Z,-2.03
2023-01-25T06:34:43.939Z,-1.98
2023-01-25T06:39:47.118Z,-2.02
2023-01-25T06:44:50.235Z,-2.01
2023-01-25T06:49:53.447Z,-1.96
2023-01-25T06:54:56.752Z,-1.93
2023-01-25T07:00:00.673Z,-1.93
2023-01-25T07:05:04.697Z,-1.85
2023-01-25T07:10:08.969Z,-1.84
2023-01-25T07:15:12.256Z,-1.84
2023-01-25T07:20:16.351Z,-1.78
2023-01-25T07:25:19.499Z,-1.66
2023-01-25T07:30:22.790Z,-1.55
2023-01-25T07:35:25.923Z,-1.49
2023-01-25T07:40:28.999Z,-1.46
2023-01-25T07:45:32.257Z,-1.44
2023-01-25T07:50:35.337Z,-1.44
2023-01-25T07:55:38.515Z,-1.39
2023-01-25T08:00:41.730Z,-1.42
2023-01-25T08:05:45.489Z,-1.30
2023-01-25T08:10:48.552Z,-1.13
2023-01-25T08:15:56.272Z,-1.13
2023-01-25T08:21:00.713Z,-1.10
2023-01-25T08:26:05.910Z,-1.09
2023-01-25T08:31:19.662Z,-1.05
2023-01-25T08:36:28.015Z,-1.07
2023-01-25T08:41:32.966Z,-0.99
2023-01-25T08:46:36.121Z,-0.90
2023-01-25T08:51:39.534Z,-0.88
2023-01-25T08:56:43.163Z,-0.87
2023-01-25T09:01:46.344Z,-0.90
2023-01-25T09:06:49.864Z,-0.86
2023-01-25T09:11:52.968Z,-0.87
2023-01-25T09:16:56.076Z,-0.94
2023-01-25T09:21:59.287Z,-0.84
2023-01-25T09:27:02.491Z,-0.87
2023-01-25T09:32:05.583Z,-0.92
2023-01-25T09:37:09.034Z,-0.87
2023-01-25T09:42:25.034Z,-0.77
2023-01-25T09:53:58.784Z,-0.64
2023-01-25T09:59:19.889Z,-0.48
2023-01-25T10:04:35.230Z,-0.37
2023-01-25T10:09:54.595Z,-0.29
2023-01-25T10:14:57.809Z,-0.45
2023-01-25T10:20:21.704Z,-0.44
2023-01-25T10:25:36.395Z,-0.31
2023-01-25T10:31:03.655Z,-0.15
2023-01-25T10:36:13.317Z,-0.11
2023-01-25T10:41:28.617Z,-0.14
2023-01-25T10:46:32.145Z,-0.28
2023-01-25T10:51:35.731Z,-0.14
2023-01-25T10:56:40.377Z,-0.19
2023-01-25T11:01:44.046Z,-0.37
2023-01-25T11:06:51.515Z,-0.31
2023-01-25T11:12:11.714Z,-0.20
2023-01-25T11:17:32.533Z,-0.20
2023-01-25T11:22:35.631Z,-0.17
2023-01-25T11:27:38.945Z,-0.15
2023-01-25T11:32:42.259Z,-0.04
2023-01-25T11:38:16.442Z,0.16
2023-01-25T11:43:38.786Z,0.05
2023-01-25T11:48:57.943Z,-0.08
2023-01-25T11:54:42.006Z,-0.07
2023-01-25T12:00:18.998Z,0.13
2023-01-25T12:05:24.988Z,0.16
2023-01-25T12:11:00.948Z,0.11
2023-01-25T12:16:25.386Z,-0.00
2023-01-25T12:21:53.466Z,-0.01
2023-01-25T12:27:30.549Z,0.05
2023-01-25T12:32:37.365Z,0.08
2023-01-25T12:37:43.899Z,-0.05
2023-01-25T12:43:01.672Z,-0.06
2023-01-25T12:48:29.159Z,-0.02
2023-01-25T12:53:47.432Z,0.01
2023-01-25T12:59:00.561Z,0.01
2023-01-25T13:04:24.860Z,-0.02
2023-01-25T13:09:35.963Z,-0.05
2023-01-25T13:14:41.578Z,-0.16
2023-01-25T13:19:44.731Z,-0.15
2023-01-25T13:25:03.300Z,-0.14
2023-01-25T13:30:24.748Z,-0.04
2023-01-25T13:35:32.906Z,0.08
2023-01-25T13:40:38.900Z,0.19
2023-01-25T13:45:43.928Z,0.17
2023-01-25T13:51:01.226Z,0.06
2023-01-25T13:56:04.537Z,-0.02
2023-01-25T14:01:17.334Z,-0.09
2023-01-25T14:06:36.770Z,-0.10
2023-01-25T14:11:50.124Z,-0.16
2023-01-25T14:17:19.224Z,-0.22
2023-01-25T14:22:27.384Z,-0.28
2023-01-25T14:27:31.065Z,-0.39
2023-01-25T14:32:34.273Z,-0.45
2023-01-25T14:37:42.810Z,-0.45
2023-01-25T14:42:46.236Z,-0.48
2023-01-25T14:47:59.050Z,-0.44
2023-01-25T14:53:25.303Z,-0.44
2023-01-25T14:58:31.792Z,-0.45
2023-01-25T15:03:34.904Z,-0.52
2023-01-25T15:08:40.970Z,-0.66
2023-01-25T15:13:44.753Z,-0.72
2023-01-25T15:18:54.173Z,-0.69
2023-01-25T15:24:05.030Z,-0.61
2023-01-25T15:29:16.298Z,-0.50
2023-01-25T15:34:25.537Z,-0.42
2023-01-25T15:39:29.204Z,-0.42
2023-01-25T15:44:32.514Z,-0.55
2023-01-25T15:49:39.661Z,-0.70
2023-01-25T15:54:51.792Z,-0.69
2023-01-25T15:59:57.398Z,-0.60
2023-01-25T16:05:00.628Z,-0.52
2023-01-25T16:10:04.734Z,-0.45
2023-01-25T16:15:09.042Z,-0.47
2023-01-25T16:20:22.327Z,-0.54
2023-01-25T16:25:25.452Z,-0.59
2023-01-25T16:30:31.298Z,-0.67
2023-01-25T16:35:34.434Z,-0.66
2023-01-25T16:40:39.915Z,-0.67
2023-01-25T16:45:43.291Z,-0.66
2023-01-25T16:50:49.259Z,-0.62
2023-01-25T16:55:52.567Z,-0.52
2023-01-25T17:00:55.810Z,-0.48
2023-01-25T17:06:00.223Z,-0.46
2023-01-25T17:11:07.419Z,-0.53
2023-01-25T17:16:10.675Z,-0.54
2023-01-25T17:21:16.985Z,-0.54
2023-01-25T17:26:22.126Z,-0.52
2023-01-25T17:31:29.505Z,-0.56
2023-01-25T17:36:32.913Z,-0.61
2023-01-25T17:41:36.694Z,-0.62
2023-01-25T17:46:40.548Z,-0.58
2023-01-25T17:51:45.382Z,-0.54
2023-01-25T17:56:49.701Z,-0.50
2023-01-25T18:01:53.040Z,-0.53
2023-01-25T18:06:56.226Z,-0.62
2023-01-25T18:11:59.441Z,-0.62
2023-01-25T18:17:02.639Z,-0.55
2023-01-25T18:22:05.958Z,-0.56
2023-01-25T18:27:25.264Z,-0.56
2023-01-25T18:32:32.889Z,-0.59
2023-01-25T18:37:44.036Z,-0.64
2023-01-25T18:42:47.553Z,-0.67
2023-01-25T18:47:51.376Z,-0.65
2023-01-25T18:52:55.931Z,-0.63
2023-01-25T18:58:04.152Z,-0.58
2023-01-25T19:03:07.615Z,-0.51
2023-01-25T19:24:58.187Z,-0.10
2023-01-25T19:30:01.649Z,-0.20
2023-01-25T19:35:08.996Z,-0.19
2023-01-25T19:40:13.729Z,-0.15
2023-01-25T19:45:16.867Z,-0.14
2023-01-25T19:50:19.961Z,-0.21
2023-01-25T19:55:23.476Z,-0.31
2023-01-25T20:00:27.605Z,-0.41
2023-01-25T20:05:30.771Z,-0.46
2023-01-25T20:10:34.742Z,-0.48
2023-01-25T20:15:38.092Z,-0.43
2023-01-25T20:20:41.163Z,-0.41
2023-01-25T20:25:44.369Z,-0.40
2023-01-25T20:30:47.502Z,-0.43
2023-01-25T20:35:50.791Z,-0.49
2023-01-25T20:41:09.458Z,-0.54
2023-01-25T20:46:12.595Z,-0.50
2023-01-25T20:51:21.674Z,-0.46
2023-01-25T20:56:25.840Z,-0.43
2023-01-25T21:01:37.286Z,-0.41
2023-01-25T21:06:42.196Z,-0.44
2023-01-25T21:11:45.754Z,-0.53
2023-01-25T21:16:48.920Z,-0.56
2023-01-25T21:21:53.591Z,-0.43
2023-01-25T21:26:57.179Z,-0.42
2023-01-25T21:32:02.694Z,-0.48
2023-01-25T21:37:05.952Z,-0.51
2023-01-25T21:42:11.115Z,-0.54
2023-01-25T21:47:29.320Z,-0.56
2023-01-25T21:52:36.554Z,-0.51
2023-01-25T21:57:47.013Z,-0.40
2023-01-25T22:02:52.084Z,-0.34
2023-01-25T22:07:55.512Z,-0.27
2023-01-25T22:12:58.922Z,-0.20
2023-01-25T22:18:02.645Z,-0.22
2023-01-25T22:23:07.285Z,-0.26
2023-01-25T22:28:15.503Z,-0.35
2023-01-25T22:33:22.000Z,-0.40
2023-01-25T22:38:26.320Z,-0.36
2023-01-25T22:43:32.591Z,-0.32
2023-01-25T22:48:37.085Z,-0.28
2023-01-25T22:53:41.175Z,-0.25
2023-01-25T22:58:48.158Z,-0.26
2023-01-25T23:03:53.925Z,-0.25
2023-01-25T23:09:00.323Z,-0.36
2023-01-25T23:14:31.801Z,-0.45
2023-01-25T23:19:35.212Z,-0.45
2023-01-25T23:24:39.146Z,-0.38
2023-01-25T23:29:42.983Z,-0.28
2023-01-25T23:34:53.335Z,-0.26
2023-01-25T23:39:56.550Z,-0.29
2023-01-25T23:45:00.176Z,-0.33
2023-01-25T23:50:05.254Z,-0.32
2023-01-25T23:55:09.349Z,-0.34
